sensor_id;sensor_type;location;lat;lon;timestamp;P1;durP1;ratioP1;P2;durP2;ratioP2
28796;SDS011;24974;54.444;18.560;2023-02-27T00:01:56;13.15;;;7.63;;
28796;SDS011;24974;54.444;18.560;2023-02-27T00:04:27;4.70;;;3.60;;
28796;SDS011;24974;54.444;18.560;2023-02-27T00:06:57;3.30;;;3.05;;
28796;SDS011;24974;54.444;18.560;2023-02-27T00:09:28;3.00;;;2.78;;
28796;SDS011;24974;54.444;18.560;2023-02-27T00:11:59;3.10;;;2.90;;
28796;SDS011;24974;54.444;18.560;2023-02-27T00:14:30;3.83;;;2.95;;
28796;SDS011;24974;54.444;18.560;2023-02-27T00:17:01;2.83;;;2.63;;
28796;SDS011;24974;54.444;18.560;2023-02-27T00:19:32;4.10;;;2.85;;
28796;SDS011;24974;54.444;18.560;2023-02-27T00:22:03;3.92;;;2.67;;
28796;SDS011;24974;54.444;18.560;2023-02-27T00:24:34;6.70;;;3.25;;
28796;SDS011;24974;54.444;18.560;2023-02-27T00:27:04;4.00;;;2.72;;
28796;SDS011;24974;54.444;18.560;2023-02-27T00:29:35;4.68;;;2.95;;
28796;SDS011;24974;54.444;18.560;2023-02-27T00:32:06;3.42;;;3.00;;
28796;SDS011;24974;54.444;18.560;2023-02-27T00:34:37;4.80;;;2.85;;
28796;SDS011;24974;54.444;18.560;2023-02-27T00:37:08;2.97;;;2.75;;
28796;SDS011;24974;54.444;18.560;2023-02-27T00:39:39;4.70;;;2.80;;
28796;SDS011;24974;54.444;18.560;2023-02-27T00:42:10;3.17;;;2.95;;
28796;SDS011;24974;54.444;18.560;2023-02-27T00:44:40;3.22;;;2.92;;
28796;SDS011;24974;54.444;18.560;2023-02-27T00:47:11;5.70;;;3.00;;
28796;SDS011;24974;54.444;18.560;2023-02-27T00:49:43;4.13;;;2.72;;
28796;SDS011;24974;54.444;18.560;2023-02-27T00:52:14;3.30;;;2.88;;
28796;SDS011;24974;54.444;18.560;2023-02-27T00:54:45;7.15;;;3.40;;
28796;SDS011;24974;54.444;18.560;2023-02-27T00:57:16;3.75;;;3.22;;
28796;SDS011;24974;54.444;18.560;2023-02-27T00:59:47;3.67;;;3.25;;
28796;SDS011;24974;54.444;18.560;2023-02-27T01:02:18;7.40;;;2.97;;
28796;SDS011;24974;54.444;18.560;2023-02-27T01:04:48;6.15;;;3.05;;
28796;SDS011;24974;54.444;18.560;2023-02-27T01:07:19;3.80;;;3.50;;
28796;SDS011;24974;54.444;18.560;2023-02-27T01:09:51;3.08;;;2.80;;
28796;SDS011;24974;54.444;18.560;2023-02-27T01:12:21;5.45;;;3.38;;
28796;SDS011;24974;54.444;18.560;2023-02-27T01:14:52;4.78;;;3.28;;
28796;SDS011;24974;54.444;18.560;2023-02-27T01:17:23;7.03;;;3.17;;
28796;SDS011;24974;54.444;18.560;2023-02-27T01:19:54;6.05;;;2.92;;
28796;SDS011;24974;54.444;18.560;2023-02-27T01:22:27;5.60;;;3.53;;
28796;SDS011;24974;54.444;18.560;2023-02-27T01:24:58;3.55;;;3.25;;
28796;SDS011;24974;54.444;18.560;2023-02-27T01:27:29;4.78;;;2.90;;
28796;SDS011;24974;54.444;18.560;2023-02-27T01:30:02;3.70;;;2.90;;
28796;SDS011;24974;54.444;18.560;2023-02-27T01:32:33;4.47;;;3.03;;
28796;SDS011;24974;54.444;18.560;2023-02-27T01:35:04;3.38;;;3.05;;
28796;SDS011;24974;54.444;18.560;2023-02-27T01:37:35;3.28;;;2.97;;
28796;SDS011;24974;54.444;18.560;2023-02-27T01:40:08;3.20;;;2.90;;
28796;SDS011;24974;54.444;18.560;2023-02-27T01:42:39;3.60;;;3.30;;
28796;SDS011;24974;54.444;18.560;2023-02-27T05:37:26;5.35;;;4.72;;
28796;SDS011;24974;54.444;18.560;2023-02-27T05:40:03;10.13;;;5.07;;
28796;SDS011;24974;54.444;18.560;2023-02-27T05:42:39;12.77;;;4.63;;
28796;SDS011;24974;54.444;18.560;2023-02-27T05:45:22;5.85;;;3.95;;
28796;SDS011;24974;54.444;18.560;2023-02-27T05:48:10;11.82;;;3.97;;
28796;SDS011;24974;54.444;18.560;2023-02-27T05:50:44;4.10;;;3.63;;
28796;SDS011;24974;54.444;18.560;2023-02-27T05:53:17;7.20;;;4.20;;
28796;SDS011;24974;54.444;18.560;2023-02-27T05:55:53;6.93;;;3.90;;
28796;SDS011;24974;54.444;18.560;2023-02-27T05:58:29;7.47;;;4.00;;
28796;SDS011;24974;54.444;18.560;2023-02-27T06:01:05;5.70;;;3.88;;
28796;SDS011;24974;54.444;18.560;2023-02-27T06:03:38;5.45;;;3.63;;
28796;SDS011;24974;54.444;18.560;2023-02-27T06:06:12;5.72;;;3.90;;
28796;SDS011;24974;54.444;18.560;2023-02-27T06:08:45;6.53;;;4.10;;
28796;SDS011;24974;54.444;18.560;2023-02-27T06:11:16;6.85;;;3.70;;
28796;SDS011;24974;54.444;18.560;2023-02-27T06:13:47;8.05;;;3.78;;
28796;SDS011;24974;54.444;18.560;2023-02-27T06:16:18;5.97;;;3.53;;
28796;SDS011;24974;54.444;18.560;2023-02-27T06:18:49;7.75;;;3.65;;
28796;SDS011;24974;54.444;18.560;2023-02-27T06:21:20;5.93;;;3.55;;
28796;SDS011;24974;54.444;18.560;2023-02-27T06:23:50;4.55;;;3.50;;
28796;SDS011;24974;54.444;18.560;2023-02-27T06:26:21;5.10;;;3.78;;
28796;SDS011;24974;54.444;18.560;2023-02-27T06:28:52;4.30;;;3.17;;
28796;SDS011;24974;54.444;18.560;2023-02-27T06:31:23;6.28;;;3.63;;
28796;SDS011;24974;54.444;18.560;2023-02-27T06:33:53;7.85;;;4.07;;
28796;SDS011;24974;54.444;18.560;2023-02-27T06:36:25;7.07;;;3.72;;
28796;SDS011;24974;54.444;18.560;2023-02-27T06:38:58;6.57;;;4.00;;
28796;SDS011;24974;54.444;18.560;2023-02-27T06:41:29;9.70;;;3.97;;
28796;SDS011;24974;54.444;18.560;2023-02-27T06:44:00;7.90;;;4.32;;
28796;SDS011;24974;54.444;18.560;2023-02-27T06:46:30;7.35;;;3.80;;
28796;SDS011;24974;54.444;18.560;2023-02-27T06:49:02;6.35;;;3.78;;
28796;SDS011;24974;54.444;18.560;2023-02-27T06:51:33;6.13;;;3.85;;
28796;SDS011;24974;54.444;18.560;2023-02-27T06:54:03;6.63;;;3.60;;
28796;SDS011;24974;54.444;18.560;2023-02-27T06:56:34;7.65;;;4.03;;
28796;SDS011;24974;54.444;18.560;2023-02-27T06:59:05;6.22;;;3.53;;
28796;SDS011;24974;54.444;18.560;2023-02-27T07:01:36;6.97;;;3.33;;
28796;SDS011;24974;54.444;18.560;2023-02-27T07:04:10;4.50;;;3.00;;
28796;SDS011;24974;54.444;18.560;2023-02-27T07:06:43;4.35;;;3.30;;
28796;SDS011;24974;54.444;18.560;2023-02-27T07:09:14;5.95;;;3.60;;
28796;SDS011;24974;54.444;18.560;2023-02-27T07:11:46;6.90;;;3.75;;
28796;SDS011;24974;54.444;18.560;2023-02-27T07:14:16;8.23;;;3.72;;
28796;SDS011;24974;54.444;18.560;2023-02-27T07:16:47;5.13;;;3.17;;
28796;SDS011;24974;54.444;18.560;2023-02-27T07:19:20;8.05;;;3.90;;
28796;SDS011;24974;54.444;18.560;2023-02-27T07:21:52;4.13;;;3.53;;
28796;SDS011;24974;54.444;18.560;2023-02-27T07:24:23;6.55;;;3.75;;
28796;SDS011;24974;54.444;18.560;2023-02-27T07:26:54;8.38;;;4.03;;
28796;SDS011;24974;54.444;18.560;2023-02-27T07:29:25;5.75;;;3.30;;
28796;SDS011;24974;54.444;18.560;2023-02-27T07:31:56;6.80;;;3.40;;
28796;SDS011;24974;54.444;18.560;2023-02-27T07:34:27;9.23;;;4.60;;
28796;SDS011;24974;54.444;18.560;2023-02-27T07:36:57;7.68;;;3.55;;
28796;SDS011;24974;54.444;18.560;2023-02-27T07:39:28;7.70;;;4.20;;
28796;SDS011;24974;54.444;18.560;2023-02-27T07:41:59;8.00;;;4.18;;
28796;SDS011;24974;54.444;18.560;2023-02-27T07:44:30;9.98;;;4.32;;
28796;SDS011;24974;54.444;18.560;2023-02-27T07:47:01;7.45;;;4.28;;
28796;SDS011;24974;54.444;18.560;2023-02-27T07:49:32;6.75;;;4.13;;
28796;SDS011;24974;54.444;18.560;2023-02-27T07:52:02;8.05;;;4.57;;
28796;SDS011;24974;54.444;18.560;2023-02-27T07:54:33;9.45;;;4.32;;
28796;SDS011;24974;54.444;18.560;2023-02-27T07:57:06;5.55;;;4.45;;
28796;SDS011;24974;54.444;18.560;2023-02-27T07:59:38;6.30;;;4.38;;
28796;SDS011;24974;54.444;18.560;2023-02-27T08:02:09;9.02;;;5.10;;
28796;SDS011;24974;54.444;18.560;2023-02-27T08:04:41;12.70;;;4.30;;
28796;SDS011;24974;54.444;18.560;2023-02-27T08:07:12;6.60;;;4.30;;
28796;SDS011;24974;54.444;18.560;2023-02-27T08:09:43;5.20;;;3.00;;
28796;SDS011;24974;54.444;18.560;2023-02-27T08:12:14;3.35;;;2.83;;
28796;SDS011;24974;54.444;18.560;2023-02-27T08:14:44;6.32;;;2.80;;
28796;SDS011;24974;54.444;18.560;2023-02-27T08:17:15;5.05;;;2.90;;
28796;SDS011;24974;54.444;18.560;2023-02-27T08:19:46;7.30;;;3.20;;
28796;SDS011;24974;54.444;18.560;2023-02-27T08:22:17;6.07;;;3.47;;
28796;SDS011;24974;54.444;18.560;2023-02-27T08:24:48;3.40;;;2.80;;
28796;SDS011;24974;54.444;18.560;2023-02-27T08:27:19;5.80;;;3.10;;
28796;SDS011;24974;54.444;18.560;2023-02-27T08:29:49;3.70;;;2.80;;
28796;SDS011;24974;54.444;18.560;2023-02-27T08:32:20;2.70;;;2.50;;
28796;SDS011;24974;54.444;18.560;2023-02-27T08:34:51;4.85;;;2.20;;
28796;SDS011;24974;54.444;18.560;2023-02-27T08:37:22;2.58;;;2.30;;
28796;SDS011;24974;54.444;18.560;2023-02-27T08:39:53;3.15;;;2.28;;
28796;SDS011;24974;54.444;18.560;2023-02-27T08:42:24;6.53;;;3.33;;
28796;SDS011;24974;54.444;18.560;2023-02-27T08:44:55;5.13;;;3.53;;
28796;SDS011;24974;54.444;18.560;2023-02-27T08:47:25;6.78;;;2.92;;
28796;SDS011;24974;54.444;18.560;2023-02-27T08:49:56;4.75;;;2.50;;
28796;SDS011;24974;54.444;18.560;2023-02-27T08:52:27;3.28;;;2.72;;
28796;SDS011;24974;54.444;18.560;2023-02-27T08:54:58;4.75;;;2.40;;
28796;SDS011;24974;54.444;18.560;2023-02-27T08:57:28;3.92;;;2.22;;
28796;SDS011;24974;54.444;18.560;2023-02-27T09:00:00;5.50;;;2.55;;
28796;SDS011;24974;54.444;18.560;2023-02-27T09:02:31;3.33;;;2.80;;
28796;SDS011;24974;54.444;18.560;2023-02-27T09:05:02;3.72;;;2.70;;
28796;SDS011;24974;54.444;18.560;2023-02-27T09:07:33;6.47;;;2.65;;
28796;SDS011;24974;54.444;18.560;2023-02-27T09:10:04;4.63;;;2.25;;
28796;SDS011;24974;54.444;18.560;2023-02-27T09:12:36;2.65;;;2.17;;
28796;SDS011;24974;54.444;18.560;2023-02-27T09:15:07;4.45;;;2.40;;
28796;SDS011;24974;54.444;18.560;2023-02-27T09:17:39;4.45;;;2.40;;
28796;SDS011;24974;54.444;18.560;2023-02-27T09:20:09;4.95;;;2.28;;
28796;SDS011;24974;54.444;18.560;2023-02-27T09:22:41;2.90;;;2.58;;
28796;SDS011;24974;54.444;18.560;2023-02-27T09:25:12;3.50;;;2.38;;
28796;SDS011;24974;54.444;18.560;2023-02-27T09:27:43;5.20;;;2.50;;
28796;SDS011;24974;54.444;18.560;2023-02-27T09:30:14;3.58;;;2.33;;
28796;SDS011;24974;54.444;18.560;2023-02-27T09:32:44;7.45;;;2.50;;
28796;SDS011;24974;54.444;18.560;2023-02-27T09:35:15;4.53;;;2.50;;
28796;SDS011;24974;54.444;18.560;2023-02-27T09:37:49;3.75;;;2.10;;
28796;SDS011;24974;54.444;18.560;2023-02-27T09:42:56;2.00;;;1.60;;
28796;SDS011;24974;54.444;18.560;2023-02-27T09:45:33;4.18;;;2.53;;
28796;SDS011;24974;54.444;18.560;2023-02-27T09:48:19;4.57;;;2.38;;
28796;SDS011;24974;54.444;18.560;2023-02-27T09:50:59;7.97;;;2.20;;
28796;SDS011;24974;54.444;18.560;2023-02-27T09:53:32;8.48;;;3.60;;
28796;SDS011;24974;54.444;18.560;2023-02-27T09:56:28;7.25;;;2.42;;
28796;SDS011;24974;54.444;18.560;2023-02-27T10:08:34;13.23;;;3.22;;
28796;SDS011;24974;54.444;18.560;2023-02-27T10:11:12;11.45;;;2.88;;
28796;SDS011;24974;54.444;18.560;2023-02-27T10:16:41;9.27;;;2.78;;
28796;SDS011;24974;54.444;18.560;2023-02-27T10:19:16;11.98;;;2.22;;
28796;SDS011;24974;54.444;18.560;2023-02-27T10:21:57;3.03;;;2.00;;
28796;SDS011;24974;54.444;18.560;2023-02-27T10:24:33;5.38;;;2.00;;
28796;SDS011;24974;54.444;18.560;2023-02-27T10:27:11;8.88;;;1.60;;
28796;SDS011;24974;54.444;18.560;2023-02-27T10:29:45;3.67;;;1.88;;
28796;SDS011;24974;54.444;18.560;2023-02-27T10:32:26;10.00;;;2.03;;
28796;SDS011;24974;54.444;18.560;2023-02-27T10:35:08;12.55;;;2.00;;
28796;SDS011;24974;54.444;18.560;2023-02-27T10:38:15;5.78;;;1.65;;
28796;SDS011;24974;54.444;18.560;2023-02-27T10:41:02;5.90;;;2.00;;
28796;SDS011;24974;54.444;18.560;2023-02-27T10:43:35;2.67;;;1.83;;
28796;SDS011;24974;54.444;18.560;2023-02-27T10:46:10;1.48;;;1.30;;
28796;SDS011;24974;54.444;18.560;2023-02-27T10:48:44;7.32;;;1.85;;
28796;SDS011;24974;54.444;18.560;2023-02-27T10:51:20;7.68;;;1.95;;
28796;SDS011;24974;54.444;18.560;2023-02-27T10:56:55;3.80;;;1.40;;
28796;SDS011;24974;54.444;18.560;2023-02-27T10:59:36;3.40;;;1.20;;
28796;SDS011;24974;54.444;18.560;2023-02-27T11:04:48;4.57;;;1.20;;
28796;SDS011;24974;54.444;18.560;2023-02-27T11:07:34;6.25;;;1.30;;
28796;SDS011;24974;54.444;18.560;2023-02-27T11:13:03;3.95;;;1.48;;
28796;SDS011;24974;54.444;18.560;2023-02-27T11:18:44;7.10;;;1.40;;
28796;SDS011;24974;54.444;18.560;2023-02-27T11:21:23;6.65;;;1.13;;
28796;SDS011;24974;54.444;18.560;2023-02-27T11:24:00;1.77;;;1.20;;
28796;SDS011;24974;54.444;18.560;2023-02-27T11:31:45;5.93;;;1.98;;
28796;SDS011;24974;54.444;18.560;2023-02-27T11:34:26;4.45;;;1.50;;
28796;SDS011;24974;54.444;18.560;2023-02-27T11:37:41;3.33;;;1.40;;
28796;SDS011;24974;54.444;18.560;2023-02-27T11:42:42;5.25;;;1.55;;
28796;SDS011;24974;54.444;18.560;2023-02-27T11:47:51;3.22;;;1.15;;
28796;SDS011;24974;54.444;18.560;2023-02-27T11:56:43;2.60;;;1.20;;
28796;SDS011;24974;54.444;18.560;2023-02-27T11:59:43;7.68;;;1.45;;
28796;SDS011;24974;54.444;18.560;2023-02-27T12:02:28;4.25;;;1.58;;
28796;SDS011;24974;54.444;18.560;2023-02-27T12:07:55;1.30;;;0.93;;
28796;SDS011;24974;54.444;18.560;2023-02-27T12:10:27;4.45;;;1.30;;
28796;SDS011;24974;54.444;18.560;2023-02-27T12:13:02;6.07;;;1.40;;
28796;SDS011;24974;54.444;18.560;2023-02-27T12:18:19;2.55;;;1.13;;
28796;SDS011;24974;54.444;18.560;2023-02-27T12:21:01;1.48;;;0.90;;
28796;SDS011;24974;54.444;18.560;2023-02-27T12:23:45;3.20;;;1.35;;
28796;SDS011;24974;54.444;18.560;2023-02-27T12:29:04;2.28;;;1.20;;
28796;SDS011;24974;54.444;18.560;2023-02-27T12:31:59;3.28;;;1.00;;
28796;SDS011;24974;54.444;18.560;2023-02-27T12:34:37;5.78;;;1.30;;
28796;SDS011;24974;54.444;18.560;2023-02-27T12:37:13;3.08;;;1.83;;
28796;SDS011;24974;54.444;18.560;2023-02-27T12:39:49;8.68;;;1.80;;
28796;SDS011;24974;54.444;18.560;2023-02-27T12:59:38;6.18;;;1.40;;
28796;SDS011;24974;54.444;18.560;2023-02-27T13:02:45;4.75;;;1.55;;
28796;SDS011;24974;54.444;18.560;2023-02-27T13:05:31;3.78;;;1.42;;
28796;SDS011;24974;54.444;18.560;2023-02-27T13:13:33;7.60;;;1.35;;
28796;SDS011;24974;54.444;18.560;2023-02-27T13:16:11;4.20;;;1.20;;
28796;SDS011;24974;54.444;18.560;2023-02-27T13:18:53;6.70;;;1.98;;
28796;SDS011;24974;54.444;18.560;2023-02-27T13:21:33;3.20;;;1.50;;
28796;SDS011;24974;54.444;18.560;2023-02-27T13:24:12;5.55;;;1.80;;
28796;SDS011;24974;54.444;18.560;2023-02-27T13:26:46;4.27;;;1.43;;
28796;SDS011;24974;54.444;18.560;2023-02-27T13:29:39;2.05;;;1.52;;
28796;SDS011;24974;54.444;18.560;2023-02-27T13:34:58;5.20;;;1.40;;
28796;SDS011;24974;54.444;18.560;2023-02-27T13:40:36;4.60;;;2.75;;
28796;SDS011;24974;54.444;18.560;2023-02-27T13:59:38;5.13;;;2.30;;
28796;SDS011;24974;54.444;18.560;2023-02-27T14:04:47;10.27;;;4.72;;
28796;SDS011;24974;54.444;18.560;2023-02-27T14:07:25;5.50;;;2.92;;
28796;SDS011;24974;54.444;18.560;2023-02-27T14:12:35;5.38;;;1.90;;
28796;SDS011;24974;54.444;18.560;2023-02-27T14:18:02;7.70;;;3.08;;
28796;SDS011;24974;54.444;18.560;2023-02-27T14:23:19;12.35;;;4.00;;
28796;SDS011;24974;54.444;18.560;2023-02-27T14:25:55;7.30;;;3.83;;
28796;SDS011;24974;54.444;18.560;2023-02-27T14:28:49;4.35;;;2.22;;
28796;SDS011;24974;54.444;18.560;2023-02-27T14:31:32;3.10;;;1.67;;
28796;SDS011;24974;54.444;18.560;2023-02-27T14:34:09;3.00;;;2.05;;
28796;SDS011;24974;54.444;18.560;2023-02-27T14:39:36;4.40;;;1.85;;
28796;SDS011;24974;54.444;18.560;2023-02-27T14:42:15;3.15;;;2.25;;
28796;SDS011;24974;54.444;18.560;2023-02-27T14:45:01;6.15;;;1.67;;
28796;SDS011;24974;54.444;18.560;2023-02-27T14:47:34;8.88;;;2.10;;
28796;SDS011;24974;54.444;18.560;2023-02-27T14:50:18;2.92;;;2.25;;
28796;SDS011;24974;54.444;18.560;2023-02-27T14:52:52;3.27;;;2.10;;
28796;SDS011;24974;54.444;18.560;2023-02-27T14:55:25;5.45;;;2.40;;
28796;SDS011;24974;54.444;18.560;2023-02-27T15:01:02;6.88;;;4.03;;
28796;SDS011;24974;54.444;18.560;2023-02-27T15:03:38;5.15;;;3.15;;
28796;SDS011;24974;54.444;18.560;2023-02-27T15:06:19;4.90;;;2.80;;
28796;SDS011;24974;54.444;18.560;2023-02-27T15:09:04;4.90;;;2.40;;
28796;SDS011;24974;54.444;18.560;2023-02-27T15:11:38;6.32;;;2.30;;
28796;SDS011;24974;54.444;18.560;2023-02-27T15:14:17;4.47;;;2.90;;
28796;SDS011;24974;54.444;18.560;2023-02-27T15:16:54;5.82;;;3.45;;
28796;SDS011;24974;54.444;18.560;2023-02-27T15:19:26;7.18;;;2.88;;
28796;SDS011;24974;54.444;18.560;2023-02-27T15:22:00;7.00;;;2.92;;
28796;SDS011;24974;54.444;18.560;2023-02-27T15:24:35;7.03;;;3.00;;
28796;SDS011;24974;54.444;18.560;2023-02-27T15:27:07;5.80;;;3.03;;
28796;SDS011;24974;54.444;18.560;2023-02-27T15:29:44;4.22;;;3.00;;
28796;SDS011;24974;54.444;18.560;2023-02-27T15:32:37;4.68;;;2.67;;
28796;SDS011;24974;54.444;18.560;2023-02-27T15:37:47;6.55;;;3.38;;
28796;SDS011;24974;54.444;18.560;2023-02-27T15:40:28;4.35;;;2.90;;
28796;SDS011;24974;54.444;18.560;2023-02-27T15:43:00;4.43;;;2.97;;
28796;SDS011;24974;54.444;18.560;2023-02-27T15:45:32;9.23;;;3.05;;
28796;SDS011;24974;54.444;18.560;2023-02-27T15:48:05;8.90;;;3.85;;
28796;SDS011;24974;54.444;18.560;2023-02-27T15:50:42;4.78;;;3.35;;
28796;SDS011;24974;54.444;18.560;2023-02-27T15:53:16;7.63;;;4.38;;
28796;SDS011;24974;54.444;18.560;2023-02-27T15:55:50;7.47;;;4.32;;
28796;SDS011;24974;54.444;18.560;2023-02-27T15:58:36;4.95;;;2.78;;
28796;SDS011;24974;54.444;18.560;2023-02-27T16:01:16;7.25;;;2.85;;
28796;SDS011;24974;54.444;18.560;2023-02-27T16:06:28;4.57;;;2.88;;
28796;SDS011;24974;54.444;18.560;2023-02-27T16:12:08;3.20;;;2.70;;
28796;SDS011;24974;54.444;18.560;2023-02-27T16:15:16;3.00;;;2.28;;
28796;SDS011;24974;54.444;18.560;2023-02-27T16:20:51;8.48;;;3.15;;
28796;SDS011;24974;54.444;18.560;2023-02-27T16:23:25;11.55;;;3.65;;
28796;SDS011;24974;54.444;18.560;2023-02-27T16:26:05;10.32;;;5.03;;
28796;SDS011;24974;54.444;18.560;2023-02-27T16:29:14;5.32;;;3.90;;
28796;SDS011;24974;54.444;18.560;2023-02-27T16:31:52;10.45;;;3.20;;
28796;SDS011;24974;54.444;18.560;2023-02-27T16:34:37;9.02;;;3.40;;
28796;SDS011;24974;54.444;18.560;2023-02-27T16:37:17;7.53;;;3.50;;
28796;SDS011;24974;54.444;18.560;2023-02-27T16:39:49;6.38;;;5.05;;
28796;SDS011;24974;54.444;18.560;2023-02-27T16:42:21;10.73;;;6.63;;
28796;SDS011;24974;54.444;18.560;2023-02-27T16:44:52;7.50;;;5.35;;
28796;SDS011;24974;54.444;18.560;2023-02-27T16:47:23;10.93;;;5.20;;
28796;SDS011;24974;54.444;18.560;2023-02-27T16:49:55;5.47;;;3.33;;
28796;SDS011;24974;54.444;18.560;2023-02-27T16:52:26;5.60;;;3.05;;
28796;SDS011;24974;54.444;18.560;2023-02-27T16:54:56;3.75;;;3.00;;
28796;SDS011;24974;54.444;18.560;2023-02-27T16:57:27;13.95;;;6.53;;
28796;SDS011;24974;54.444;18.560;2023-02-27T16:59:58;41.42;;;16.38;;
28796;SDS011;24974;54.444;18.560;2023-02-27T17:02:29;35.53;;;14.93;;
28796;SDS011;24974;54.444;18.560;2023-02-27T17:05:00;35.47;;;13.88;;
28796;SDS011;24974;54.444;18.560;2023-02-27T17:07:32;56.50;;;20.00;;
28796;SDS011;24974;54.444;18.560;2023-02-27T17:10:03;54.33;;;20.23;;
28796;SDS011;24974;54.444;18.560;2023-02-27T17:12:34;54.63;;;17.45;;
28796;SDS011;24974;54.444;18.560;2023-02-27T17:15:06;18.73;;;8.70;;
28796;SDS011;24974;54.444;18.560;2023-02-27T17:17:37;12.93;;;6.05;;
28796;SDS011;24974;54.444;18.560;2023-02-27T17:20:08;8.98;;;5.18;;
28796;SDS011;24974;54.444;18.560;2023-02-27T17:22:42;11.73;;;5.80;;
28796;SDS011;24974;54.444;18.560;2023-02-27T17:25:14;16.38;;;8.65;;
28796;SDS011;24974;54.444;18.560;2023-02-27T17:27:45;17.70;;;9.38;;
28796;SDS011;24974;54.444;18.560;2023-02-27T17:30:16;26.85;;;12.90;;
28796;SDS011;24974;54.444;18.560;2023-02-27T17:32:47;31.40;;;16.65;;
28796;SDS011;24974;54.444;18.560;2023-02-27T17:35:18;33.88;;;14.32;;
28796;SDS011;24974;54.444;18.560;2023-02-27T17:37:48;22.75;;;11.93;;
28796;SDS011;24974;54.444;18.560;2023-02-27T17:40:19;18.00;;;10.45;;
28796;SDS011;24974;54.444;18.560;2023-02-27T17:42:50;19.90;;;11.05;;
28796;SDS011;24974;54.444;18.560;2023-02-27T17:45:21;20.35;;;10.25;;
28796;SDS011;24974;54.444;18.560;2023-02-27T17:47:53;14.43;;;8.63;;
28796;SDS011;24974;54.444;18.560;2023-02-27T17:50:24;11.15;;;6.68;;
28796;SDS011;24974;54.444;18.560;2023-02-27T17:52:55;7.18;;;5.38;;
28796;SDS011;24974;54.444;18.560;2023-02-27T17:55:26;8.68;;;4.85;;
28796;SDS011;24974;54.444;18.560;2023-02-27T17:57:56;4.68;;;4.25;;
28796;SDS011;24974;54.444;18.560;2023-02-27T18:00:27;5.45;;;4.30;;
28796;SDS011;24974;54.444;18.560;2023-02-27T18:02:59;7.07;;;4.07;;
28796;SDS011;24974;54.444;18.560;2023-02-27T18:05:30;6.63;;;4.75;;
28796;SDS011;24974;54.444;18.560;2023-02-27T18:08:00;8.35;;;4.93;;
28796;SDS011;24974;54.444;18.560;2023-02-27T18:10:31;5.15;;;4.25;;
28796;SDS011;24974;54.444;18.560;2023-02-27T18:13:02;8.13;;;5.07;;
28796;SDS011;24974;54.444;18.560;2023-02-27T18:15:33;11.30;;;5.53;;
28796;SDS011;24974;54.444;18.560;2023-02-27T18:18:04;14.65;;;8.55;;
28796;SDS011;24974;54.444;18.560;2023-02-27T18:20:34;15.23;;;8.38;;
28796;SDS011;24974;54.444;18.560;2023-02-27T18:23:06;11.57;;;7.40;;
28796;SDS011;24974;54.444;18.560;2023-02-27T18:25:38;11.63;;;6.80;;
28796;SDS011;24974;54.444;18.560;2023-02-27T18:28:09;9.48;;;6.00;;
28796;SDS011;24974;54.444;18.560;2023-02-27T18:30:40;7.63;;;5.40;;
28796;SDS011;24974;54.444;18.560;2023-02-27T18:33:11;7.63;;;6.22;;
28796;SDS011;24974;54.444;18.560;2023-02-27T18:35:41;13.23;;;7.25;;
28796;SDS011;24974;54.444;18.560;2023-02-27T18:38:12;14.57;;;7.95;;
28796;SDS011;24974;54.444;18.560;2023-02-27T18:40:43;20.38;;;6.80;;
28796;SDS011;24974;54.444;18.560;2023-02-27T18:43:14;14.63;;;7.20;;
28796;SDS011;24974;54.444;18.560;2023-02-27T18:45:45;15.13;;;8.25;;
28796;SDS011;24974;54.444;18.560;2023-02-27T18:48:15;16.55;;;8.45;;
28796;SDS011;24974;54.444;18.560;2023-02-27T18:50:46;13.75;;;8.25;;
28796;SDS011;24974;54.444;18.560;2023-02-27T18:53:17;13.88;;;7.35;;
28796;SDS011;24974;54.444;18.560;2023-02-27T18:55:47;9.77;;;7.13;;
28796;SDS011;24974;54.444;18.560;2023-02-27T18:58:18;13.65;;;6.82;;
28796;SDS011;24974;54.444;18.560;2023-02-27T19:00:49;12.52;;;6.72;;
28796;SDS011;24974;54.444;18.560;2023-02-27T19:03:20;12.43;;;7.70;;
28796;SDS011;24974;54.444;18.560;2023-02-27T19:05:50;12.70;;;7.68;;
28796;SDS011;24974;54.444;18.560;2023-02-27T19:08:23;9.38;;;6.70;;
28796;SDS011;24974;54.444;18.560;2023-02-27T19:10:58;9.35;;;6.60;;
28796;SDS011;24974;54.444;18.560;2023-02-27T19:13:28;15.93;;;8.35;;
28796;SDS011;24974;54.444;18.560;2023-02-27T19:16:01;16.38;;;9.32;;
28796;SDS011;24974;54.444;18.560;2023-02-27T19:18:35;30.52;;;10.80;;
28796;SDS011;24974;54.444;18.560;2023-02-27T19:21:05;17.13;;;8.60;;
28796;SDS011;24974;54.444;18.560;2023-02-27T19:23:36;18.38;;;8.40;;
28796;SDS011;24974;54.444;18.560;2023-02-27T19:26:08;14.82;;;7.70;;
28796;SDS011;24974;54.444;18.560;2023-02-27T19:28:38;15.15;;;8.40;;
28796;SDS011;24974;54.444;18.560;2023-02-27T19:31:10;18.95;;;7.75;;
28796;SDS011;24974;54.444;18.560;2023-02-27T19:33:42;13.80;;;7.15;;
28796;SDS011;24974;54.444;18.560;2023-02-27T19:36:14;10.77;;;7.05;;
28796;SDS011;24974;54.444;18.560;2023-02-27T19:38:47;18.65;;;8.35;;
28796;SDS011;24974;54.444;18.560;2023-02-27T19:41:19;31.20;;;13.07;;
28796;SDS011;24974;54.444;18.560;2023-02-27T19:43:50;45.35;;;16.17;;
28796;SDS011;24974;54.444;18.560;2023-02-27T19:46:23;40.65;;;15.63;;
28796;SDS011;24974;54.444;18.560;2023-02-27T19:48:58;20.80;;;9.75;;
28796;SDS011;24974;54.444;18.560;2023-02-27T19:51:31;19.95;;;8.75;;
28796;SDS011;24974;54.444;18.560;2023-02-27T19:54:02;13.73;;;8.13;;
28796;SDS011;24974;54.444;18.560;2023-02-27T19:56:33;13.48;;;8.02;;
28796;SDS011;24974;54.444;18.560;2023-02-27T19:59:03;23.20;;;10.48;;
28796;SDS011;24974;54.444;18.560;2023-02-27T20:01:34;33.45;;;14.65;;
28796;SDS011;24974;54.444;18.560;2023-02-27T20:04:08;53.50;;;18.30;;
28796;SDS011;24974;54.444;18.560;2023-02-27T20:06:40;64.80;;;21.38;;
28796;SDS011;24974;54.444;18.560;2023-02-27T20:09:13;49.70;;;19.75;;
28796;SDS011;24974;54.444;18.560;2023-02-27T20:11:46;47.65;;;19.45;;
28796;SDS011;24974;54.444;18.560;2023-02-27T20:14:18;48.22;;;16.77;;
28796;SDS011;24974;54.444;18.560;2023-02-27T20:16:49;36.65;;;13.25;;
28796;SDS011;24974;54.444;18.560;2023-02-27T20:19:20;22.30;;;9.82;;
28796;SDS011;24974;54.444;18.560;2023-02-27T20:21:53;12.70;;;7.82;;
28796;SDS011;24974;54.444;18.560;2023-02-27T20:24:25;13.20;;;7.72;;
28796;SDS011;24974;54.444;18.560;2023-02-27T20:26:57;17.75;;;9.75;;
28796;SDS011;24974;54.444;18.560;2023-02-27T20:29:29;18.88;;;8.68;;
28796;SDS011;24974;54.444;18.560;2023-02-27T20:32:00;24.70;;;10.40;;
28796;SDS011;24974;54.444;18.560;2023-02-27T20:34:31;26.73;;;12.95;;
28796;SDS011;24974;54.444;18.560;2023-02-27T20:37:02;29.23;;;12.95;;
28796;SDS011;24974;54.444;18.560;2023-02-27T20:39:35;22.02;;;10.55;;
28796;SDS011;24974;54.444;18.560;2023-02-27T20:42:05;18.65;;;9.68;;
28796;SDS011;24974;54.444;18.560;2023-02-27T20:44:37;22.98;;;11.27;;
28796;SDS011;24974;54.444;18.560;2023-02-27T20:47:08;24.42;;;11.32;;
28796;SDS011;24974;54.444;18.560;2023-02-27T20:49:39;15.70;;;8.82;;
28796;SDS011;24974;54.444;18.560;2023-02-27T20:52:10;14.60;;;8.88;;
28796;SDS011;24974;54.444;18.560;2023-02-27T20:54:41;12.27;;;7.60;;
28796;SDS011;24974;54.444;18.560;2023-02-27T20:57:12;16.83;;;8.85;;
28796;SDS011;24974;54.444;18.560;2023-02-27T20:59:42;15.50;;;6.95;;
28796;SDS011;24974;54.444;18.560;2023-02-27T21:02:13;13.20;;;7.90;;
28796;SDS011;24974;54.444;18.560;2023-02-27T21:04:44;13.05;;;7.18;;
28796;SDS011;24974;54.444;18.560;2023-02-27T21:07:17;11.52;;;7.53;;